Terminal Aerodrome Forecast
Issued by NWS Portland, OR

Home | Current Version | Previous Version | Text Only | Print | Product List | Glossary On
Versions: 1 2 3 4 5 6 7 8 9 10 11 12 13 14 15 16 17 18 19 20 21 22 23 24 25 26 27
000
FTUS46 KPQR 271501 AAB
TAFPDX
TAF AMD
KPDX 271501Z 2715/2812 34003KT P6SM OVC018
     FM271700 32005KT P6SM OVC025
     FM272100 31005KT P6SM SCT030
     FM272200 31008KT P6SM SKC
     FM280900 32004KT P6SM SCT015=

USA.gov is the U.S. government's official web portal to all federal, state and local government web resources and services.